Time;durP1;ratioP1;P1;durP2;ratioP2;P2;SDS_P1;SDS_P2;PMS_P1;PMS_P2;Temp;Humidity;BMP_temperature;BMP_pressure;BME280_temperature;BME280_humidity;BME280_pressure;Samples;Min_cycle;Max_cycle;Signal;HPM_P1;HPM_P2
2021/10/18 00:02:17;;;;;;;18.13;9.17;;;9.60;97.30;;;;;;5038023;28;20519;-86
2021/10/18 00:04:45;;;;;;;13.33;7.40;;;9.60;97.30;;;;;;5037242;28;20203;-86
2021/10/18 00:07:16;;;;;;;14.93;7.90;;;9.50;97.30;;;;;;5037182;28;20168;-86
2021/10/18 00:09:44;;;;;;;13.20;8.00;;;9.50;97.30;;;;;;5072912;28;20418;-86
2021/10/18 00:12:17;;;;;;;13.17;6.70;;;9.50;97.30;;;;;;5074346;28;20429;-86
2021/10/18 00:14:46;;;;;;;13.30;7.23;;;9.50;97.30;;;;;;5076777;28;20404;-86
2021/10/18 00:17:15;;;;;;;18.80;8.40;;;9.50;97.30;;;;;;5075191;28;20423;-86
2021/10/18 00:20:06;;;;;;;21.73;8.30;;;9.50;97.30;;;;;;5074092;28;20456;-86
2021/10/18 00:22:34;;;;;;;14.90;7.03;;;9.50;97.30;;;;;;5063984;28;20532;-86
2021/10/18 00:25:08;;;;;;;20.20;8.03;;;9.50;97.30;;;;;;5073609;28;20472;-86
2021/10/18 00:27:36;;;;;;;15.43;7.33;;;9.50;97.30;;;;;;5074736;28;20398;-87
2021/10/18 00:30:06;;;;;;;13.23;7.43;;;9.40;97.30;;;;;;5075347;28;20555;-86
2021/10/18 00:32:41;;;;;;;18.70;7.70;;;9.40;97.30;;;;;;5072958;28;20473;-86
2021/10/18 00:35:08;;;;;;;14.67;7.00;;;9.50;97.30;;;;;;5076293;28;20397;-86
2021/10/18 00:37:35;;;;;;;20.27;7.63;;;9.50;97.30;;;;;;5074468;28;20425;-86
2021/10/18 00:40:02;;;;;;;11.77;6.93;;;9.50;97.30;;;;;;5075818;28;20417;-86
2021/10/18 00:42:27;;;;;;;12.77;6.60;;;9.50;97.30;;;;;;5072940;28;20451;-87
2021/10/18 00:44:53;;;;;;;10.73;6.30;;;9.50;97.30;;;;;;5073190;28;20540;-87
2021/10/18 00:47:21;;;;;;;15.10;6.67;;;9.50;97.30;;;;;;5072166;28;20187;-87
2021/10/18 00:49:48;;;;;;;15.73;7.43;;;9.50;97.30;;;;;;5073042;28;20633;-87
2021/10/18 00:52:17;;;;;;;17.13;7.07;;;9.50;97.30;;;;;;5074409;28;20433;-87
2021/10/18 00:54:45;;;;;;;15.80;7.30;;;9.40;97.30;;;;;;5074771;28;20452;-87
2021/10/18 00:57:13;;;;;;;15.37;7.33;;;9.50;97.30;;;;;;5074266;28;20414;-87
2021/10/18 00:59:39;;;;;;;20.30;8.23;;;9.40;97.30;;;;;;5074363;28;20451;-87
2021/10/18 01:02:05;;;;;;;17.93;7.70;;;9.40;97.30;;;;;;5074321;28;20943;-87
2021/10/18 01:04:30;;;;;;;18.83;8.03;;;9.40;97.30;;;;;;5073871;28;20544;-87
2021/10/18 01:06:57;;;;;;;13.63;7.20;;;9.40;97.30;;;;;;5074213;28;20309;-87
2021/10/18 01:09:23;;;;;;;14.73;6.77;;;9.40;97.30;;;;;;5072889;28;20203;-87
2021/10/18 01:11:48;;;;;;;14.97;6.93;;;9.40;97.30;;;;;;5073419;28;20502;-87
2021/10/18 01:14:14;;;;;;;16.47;7.67;;;9.40;97.30;;;;;;5073288;28;20641;-87
2021/10/18 01:16:39;;;;;;;13.17;7.63;;;9.40;97.30;;;;;;5073461;28;20178;-87
2021/10/18 01:19:12;;;;;;;17.63;7.50;;;9.40;97.30;;;;;;5074860;28;20270;-87
2021/10/18 01:21:39;;;;;;;12.60;7.30;;;9.40;97.30;;;;;;5074349;28;20199;-87
2021/10/18 01:24:05;;;;;;;12.40;6.90;;;9.40;97.30;;;;;;5074135;28;20449;-87
2021/10/18 01:26:30;;;;;;;14.07;7.50;;;9.40;97.30;;;;;;5074930;28;21017;-87
2021/10/18 01:28:56;;;;;;;10.10;6.40;;;9.50;97.30;;;;;;5073954;28;20219;-85
2021/10/18 01:31:21;;;;;;;13.00;6.93;;;9.50;97.30;;;;;;5072913;28;20598;-84
2021/10/18 01:33:48;;;;;;;13.37;7.30;;;9.50;97.30;;;;;;5076791;28;20281;-84
2021/10/18 01:36:14;;;;;;;14.70;7.50;;;9.50;97.30;;;;;;5076840;28;20178;-84
2021/10/18 01:38:39;;;;;;;16.40;7.33;;;9.50;97.30;;;;;;5076760;28;20433;-85
2021/10/18 01:41:05;;;;;;;18.07;7.73;;;9.50;97.30;;;;;;5077630;28;20945;-84
2021/10/18 01:43:30;;;;;;;14.53;6.90;;;9.50;97.30;;;;;;5077134;28;20200;-85
2021/10/18 01:45:56;;;;;;;12.80;6.40;;;9.50;97.30;;;;;;5077113;28;20181;-85
2021/10/18 01:48:21;;;;;;;11.70;6.90;;;9.50;97.30;;;;;;5077360;28;20188;-84
2021/10/18 01:50:47;;;;;;;15.43;6.70;;;9.50;97.30;;;;;;5071447;28;20796;-84
2021/10/18 01:53:12;;;;;;;13.40;7.00;;;9.50;97.30;;;;;;5056403;28;20191;-85
2021/10/18 01:55:38;;;;;;;18.83;7.70;;;9.50;97.30;;;;;;5059582;28;20179;-85
2021/10/18 01:58:04;;;;;;;12.20;6.40;;;9.50;97.30;;;;;;5059896;28;20239;-85
2021/10/18 02:00:29;;;;;;;14.60;7.63;;;9.50;97.30;;;;;;5060097;28;20685;-85
2021/10/18 02:02:55;;;;;;;13.13;8.40;;;9.50;97.30;;;;;;5060725;28;20199;-83
2021/10/18 02:05:20;;;;;;;18.93;7.10;;;9.50;97.30;;;;;;5078889;28;20199;-84
2021/10/18 02:07:46;;;;;;;15.63;6.83;;;9.50;97.30;;;;;;5077904;28;20652;-83
2021/10/18 02:10:13;;;;;;;14.77;7.63;;;9.50;97.30;;;;;;5060619;28;20179;-84
2021/10/18 02:12:40;;;;;;;13.17;6.33;;;9.50;97.30;;;;;;5059796;28;20199;-84
2021/10/18 02:15:07;;;;;;;23.70;7.30;;;9.60;97.30;;;;;;5059114;28;20466;-85
2021/10/18 02:17:33;;;;;;;9.50;5.97;;;9.60;97.30;;;;;;5059222;28;20494;-85
2021/10/18 02:19:58;;;;;;;21.13;6.87;;;9.60;97.30;;;;;;5059134;28;20899;-85
2021/10/18 02:22:24;;;;;;;18.50;7.70;;;9.60;97.30;;;;;;5078223;28;20552;-85
2021/10/18 02:24:49;;;;;;;15.57;6.50;;;9.60;97.30;;;;;;5060189;28;20237;-86
2021/10/18 02:27:15;;;;;;;16.80;6.80;;;9.60;97.30;;;;;;5060811;28;20279;-85
2021/10/18 02:29:41;;;;;;;12.70;6.80;;;9.60;97.30;;;;;;5077707;28;20168;-86
2021/10/18 02:32:07;;;;;;;14.83;7.07;;;9.60;97.30;;;;;;5052803;28;20223;-85
2021/10/18 02:34:32;;;;;;;11.00;7.50;;;9.60;97.30;;;;;;5057578;28;20431;-85
2021/10/18 02:36:58;;;;;;;12.57;6.83;;;9.60;97.30;;;;;;5039115;28;20573;-86
2021/10/18 02:39:23;;;;;;;12.90;7.00;;;9.50;97.30;;;;;;5039141;28;20630;-86
2021/10/18 02:41:49;;;;;;;14.70;6.93;;;9.50;97.30;;;;;;5056765;28;20715;-85
2021/10/18 02:44:14;;;;;;;16.97;7.87;;;9.50;97.30;;;;;;5057703;28;20199;-86
2021/10/18 02:46:40;;;;;;;19.30;7.43;;;9.50;97.30;;;;;;5040387;28;20267;-85
2021/10/18 02:49:05;;;;;;;19.17;8.27;;;9.50;97.30;;;;;;5040082;28;20229;-85
2021/10/18 02:51:31;;;;;;;17.23;8.07;;;9.50;97.30;;;;;;5039520;28;20184;-86
2021/10/18 02:53:56;;;;;;;23.30;6.93;;;9.50;97.30;;;;;;5039484;28;20391;-86
2021/10/18 02:56:22;;;;;;;20.10;8.97;;;9.50;97.30;;;;;;5039042;28;20180;-85
2021/10/18 02:58:47;;;;;;;13.73;7.70;;;9.50;97.30;;;;;;5038470;28;20171;-86
2021/10/18 03:01:13;;;;;;;13.47;6.80;;;9.60;97.30;;;;;;5038742;28;20176;-85
2021/10/18 03:03:38;;;;;;;12.27;7.00;;;9.60;97.30;;;;;;5038499;28;20212;-85
2021/10/18 03:06:04;;;;;;;13.77;8.03;;;9.60;97.30;;;;;;5056712;28;20176;-85
2021/10/18 03:08:30;;;;;;;12.37;7.10;;;9.60;97.30;;;;;;5039351;28;20520;-85
2021/10/18 03:10:55;;;;;;;15.43;7.60;;;9.60;97.30;;;;;;5039829;28;20174;-84
2021/10/18 03:13:21;;;;;;;13.30;6.40;;;9.60;97.30;;;;;;5039006;28;20460;-85
2021/10/18 03:15:47;;;;;;;16.23;7.70;;;9.50;97.30;;;;;;5039350;28;20646;-86
2021/10/18 03:18:14;;;;;;;14.33;6.90;;;9.50;97.30;;;;;;5038446;28;20183;-85
2021/10/18 03:20:40;;;;;;;15.00;7.57;;;9.50;97.30;;;;;;5038072;28;20176;-85
2021/10/18 03:23:05;;;;;;;15.20;8.53;;;9.50;97.30;;;;;;5037941;28;20473;-85
2021/10/18 03:25:34;;;;;;;12.80;6.50;;;9.50;97.30;;;;;;5056102;28;20196;-85
2021/10/18 03:28:03;;;;;;;21.20;7.13;;;9.50;97.30;;;;;;5038455;28;20184;-85
2021/10/18 03:30:29;;;;;;;14.93;6.97;;;9.50;97.30;;;;;;5057317;28;20417;-85
2021/10/18 03:32:55;;;;;;;14.47;6.90;;;9.60;97.30;;;;;;5052275;28;20477;-86
2021/10/18 03:35:25;;;;;;;16.03;7.63;;;9.60;97.30;;;;;;5058296;28;20663;-85
2021/10/18 03:37:56;;;;;;;19.43;6.53;;;9.60;97.30;;;;;;5058798;28;20424;-85
2021/10/18 03:40:25;;;;;;;10.20;6.77;;;9.60;97.30;;;;;;5058556;28;20417;-87
2021/10/18 03:42:58;;;;;;;16.80;5.93;;;9.60;97.30;;;;;;5057396;28;20447;-86
2021/10/18 03:45:26;;;;;;;20.87;7.47;;;9.60;97.30;;;;;;5058001;28;20446;-86
2021/10/18 03:47:56;;;;;;;13.50;7.37;;;9.60;97.30;;;;;;5075649;28;20409;-85
2021/10/18 03:50:25;;;;;;;12.10;6.80;;;9.60;97.30;;;;;;5058560;28;20397;-86
2021/10/18 03:52:58;;;;;;;15.60;8.10;;;9.60;97.30;;;;;;5058613;28;20474;-85
2021/10/18 03:55:26;;;;;;;16.70;7.00;;;9.60;97.30;;;;;;5058507;28;20452;-86
2021/10/18 03:58:14;;;;;;;11.10;6.67;;;9.60;97.30;;;;;;5051035;28;20402;-85
2021/10/18 04:00:47;;;;;;;14.07;6.70;;;9.60;97.30;;;;;;5031515;28;20422;-85
2021/10/18 04:03:16;;;;;;;13.80;6.90;;;9.60;97.30;;;;;;5037273;28;20483;-86
2021/10/18 04:05:49;;;;;;;12.13;6.50;;;9.50;97.30;;;;;;5037592;28;20466;-86
2021/10/18 04:08:20;;;;;;;12.37;6.80;;;9.50;97.30;;;;;;5037373;28;20407;-86
2021/10/18 04:10:45;;;;;;;17.73;7.60;;;9.50;97.30;;;;;;5038554;28;21136;-86
2021/10/18 04:13:18;;;;;;;13.00;6.40;;;9.50;97.30;;;;;;5056679;28;20434;-85
2021/10/18 04:15:46;;;;;;;16.03;7.30;;;9.50;97.30;;;;;;5055567;28;20216;-85
2021/10/18 04:18:18;;;;;;;16.93;7.37;;;9.50;97.30;;;;;;5038527;28;20426;-85
2021/10/18 04:20:47;;;;;;;16.57;8.20;;;9.50;97.30;;;;;;5038590;28;20430;-85
2021/10/18 04:23:19;;;;;;;11.27;6.60;;;9.50;97.30;;;;;;5037328;28;20431;-86
2021/10/18 04:25:47;;;;;;;15.47;7.97;;;9.50;97.30;;;;;;5037361;28;20462;-86
2021/10/18 04:28:15;;;;;;;15.53;7.57;;;9.50;97.30;;;;;;5055699;28;20418;-85
2021/10/18 04:30:46;;;;;;;15.30;6.23;;;9.50;97.30;;;;;;5038222;28;20974;-86
2021/10/18 04:33:59;;;;;;;16.30;7.73;;;9.40;97.30;;;;;;5053181;28;20480;-85
2021/10/18 04:36:26;;;;;;;13.07;7.17;;;9.40;97.30;;;;;;5058553;28;20432;-85
2021/10/18 04:39:17;;;;;;;20.07;7.93;;;9.40;97.30;;;;;;5057554;28;20855;-85
2021/10/18 04:41:46;;;;;;;21.40;8.57;;;9.30;97.30;;;;;;5048300;28;20441;-85
2021/10/18 04:44:15;;;;;;;13.60;7.33;;;9.30;97.30;;;;;;5056651;28;20831;-85
2021/10/18 04:46:48;;;;;;;15.33;7.10;;;9.30;97.30;;;;;;5056901;28;20414;-85
2021/10/18 04:49:17;;;;;;;16.93;7.57;;;9.30;97.30;;;;;;5075494;28;20457;-85
2021/10/18 04:51:45;;;;;;;16.47;7.13;;;9.30;97.30;;;;;;5057644;28;20429;-85
2021/10/18 04:54:16;;;;;;;12.63;7.20;;;9.20;97.30;;;;;;5056868;28;20421;-85
2021/10/18 04:56:49;;;;;;;19.17;8.97;;;9.20;97.30;;;;;;5056646;28;20415;-85
2021/10/18 04:59:17;;;;;;;14.80;6.37;;;9.20;97.30;;;;;;5075480;28;20394;-86
2021/10/18 05:01:46;;;;;;;17.67;7.30;;;9.20;97.30;;;;;;5073712;28;20437;-85
2021/10/18 05:04:55;;;;;;;15.30;8.20;;;9.20;97.30;;;;;;5056349;28;20460;-83
2021/10/18 05:07:28;;;;;;;11.67;6.50;;;9.10;97.30;;;;;;5047178;28;20428;-85
2021/10/18 05:10:16;;;;;;;14.40;6.80;;;9.10;97.30;;;;;;5057009;28;20421;-85
2021/10/18 05:12:49;;;;;;;17.47;7.20;;;9.10;97.30;;;;;;5057650;28;20532;-85
2021/10/18 05:15:17;;;;;;;12.73;6.77;;;9.10;97.30;;;;;;5057461;28;20935;-85
2021/10/18 05:17:45;;;;;;;13.27;6.43;;;9.10;97.30;;;;;;5074682;28;20421;-86
2021/10/18 05:20:38;;;;;;;16.77;7.03;;;9.10;97.30;;;;;;5075255;28;20417;-86
2021/10/18 05:23:07;;;;;;;15.97;7.30;;;9.10;97.30;;;;;;5049046;28;20473;-85
2021/10/18 05:25:35;;;;;;;17.60;6.77;;;9.00;97.30;;;;;;5056069;28;21166;-85
2021/10/18 05:28:17;;;;;;;13.87;7.00;;;9.00;97.30;;;;;;5056434;28;21071;-85
2021/10/18 05:30:48;;;;;;;14.17;7.37;;;9.00;97.30;;;;;;5060663;28;20413;-86
2021/10/18 05:33:17;;;;;;;17.00;6.50;;;9.00;97.30;;;;;;5061562;28;20528;-86
2021/10/18 05:35:46;;;;;;;17.63;8.13;;;9.00;97.30;;;;;;5061744;28;20911;-85
2021/10/18 05:38:55;;;;;;;12.40;7.60;;;9.00;97.30;;;;;;5078543;28;20413;-86
2021/10/18 05:41:38;;;;;;;17.33;7.43;;;8.90;97.30;;;;;;5045775;28;20914;-85
2021/10/18 05:44:07;;;;;;;19.00;7.60;;;8.90;97.30;;;;;;5077788;28;20506;-85
2021/10/18 05:46:48;;;;;;;18.07;8.40;;;8.90;97.30;;;;;;5059670;28;20413;-86
2021/10/18 05:49:16;;;;;;;14.60;7.43;;;8.90;97.30;;;;;;5060205;28;20448;-86
2021/10/18 05:51:57;;;;;;;14.37;7.73;;;8.90;97.30;;;;;;5093348;28;20433;-85
2021/10/18 05:54:28;;;;;;;16.57;7.47;;;8.90;97.30;;;;;;5061812;28;20397;-85
2021/10/18 05:56:56;;;;;;;16.30;7.53;;;8.90;97.30;;;;;;5060913;28;20501;-86
2021/10/18 05:59:22;;;;;;;17.17;7.77;;;8.90;97.30;;;;;;5040189;28;20414;-84
2021/10/18 06:01:47;;;;;;;16.43;7.23;;;8.90;97.30;;;;;;5058141;28;20496;-86
2021/10/18 06:04:16;;;;;;;16.33;8.37;;;8.90;97.30;;;;;;5076481;28;20210;-86
2021/10/18 06:06:49;;;;;;;12.10;6.60;;;8.90;97.30;;;;;;5077303;28;20170;-85
2021/10/18 06:09:14;;;;;;;13.80;7.20;;;9.00;97.30;;;;;;5059702;28;20413;-86
2021/10/18 06:11:42;;;;;;;11.53;6.53;;;9.00;97.30;;;;;;5059214;28;20417;-85
2021/10/18 06:14:08;;;;;;;15.60;7.00;;;9.00;97.30;;;;;;5060167;28;20176;-85
2021/10/18 06:16:34;;;;;;;14.00;7.40;;;9.00;97.30;;;;;;5060876;28;20412;-86
2021/10/18 06:18:59;;;;;;;13.60;6.97;;;9.00;97.30;;;;;;5060548;28;20185;-85
2021/10/18 06:21:25;;;;;;;18.43;7.43;;;9.00;97.30;;;;;;5060202;28;20485;-86
2021/10/18 06:23:50;;;;;;;16.00;7.70;;;9.00;97.30;;;;;;5060101;28;20293;-86
2021/10/18 06:26:16;;;;;;;16.53;8.37;;;9.00;97.30;;;;;;5059621;28;20175;-86
2021/10/18 06:28:41;;;;;;;14.80;7.50;;;9.00;97.30;;;;;;5058811;28;20190;-85
2021/10/18 06:31:08;;;;;;;19.13;8.03;;;9.00;97.30;;;;;;5059401;28;20599;-84
2021/10/18 06:33:34;;;;;;;20.90;7.67;;;9.00;97.30;;;;;;5076885;28;20310;-86
2021/10/18 06:36:00;;;;;;;18.77;7.50;;;9.00;97.30;;;;;;5059728;28;20449;-86
2021/10/18 06:38:26;;;;;;;16.30;7.30;;;9.00;97.30;;;;;;5060852;28;20198;-86
2021/10/18 06:40:52;;;;;;;15.03;6.73;;;9.00;97.30;;;;;;5059733;28;20448;-86
2021/10/18 06:43:19;;;;;;;16.83;7.33;;;9.00;97.30;;;;;;5059650;28;20244;-86
2021/10/18 06:45:46;;;;;;;15.53;7.63;;;8.90;97.30;;;;;;5059473;28;20211;-85
2021/10/18 06:48:14;;;;;;;21.13;7.23;;;9.00;97.30;;;;;;5076631;28;20413;-86
2021/10/18 06:50:41;;;;;;;12.70;7.10;;;9.00;97.30;;;;;;5076502;28;20409;-86
2021/10/18 06:53:11;;;;;;;11.83;7.40;;;9.00;97.30;;;;;;5058610;28;20437;-86
2021/10/18 06:55:37;;;;;;;21.63;8.30;;;9.10;97.30;;;;;;5058842;28;20459;-85
2021/10/18 06:58:06;;;;;;;17.87;8.10;;;9.20;97.30;;;;;;5059359;28;20413;-85
2021/10/18 07:00:31;;;;;;;14.20;7.37;;;9.20;97.30;;;;;;5060403;28;20179;-85
2021/10/18 07:02:57;;;;;;;16.90;7.60;;;9.30;97.30;;;;;;5059397;28;20451;-85
2021/10/18 07:05:25;;;;;;;15.13;7.77;;;9.30;97.30;;;;;;5059310;28;20203;-86
2021/10/18 07:07:52;;;;;;;15.43;8.17;;;9.40;97.30;;;;;;5059268;28;20171;-85
2021/10/18 07:10:18;;;;;;;16.67;7.67;;;9.40;97.30;;;;;;5076161;28;20421;-86
2021/10/18 07:12:44;;;;;;;13.47;7.10;;;9.50;97.30;;;;;;5057628;28;20441;-86
2021/10/18 07:15:09;;;;;;;13.07;6.37;;;9.60;97.30;;;;;;5056041;28;20183;-86
2021/10/18 07:17:35;;;;;;;13.73;7.10;;;9.70;97.30;;;;;;5057020;28;20557;-86
2021/10/18 07:20:02;;;;;;;22.70;7.23;;;9.80;97.30;;;;;;5058182;28;20203;-86
2021/10/18 07:22:36;;;;;;;15.60;7.63;;;9.90;97.30;;;;;;5057755;28;20476;-86
2021/10/18 07:25:04;;;;;;;10.53;5.70;;;10.00;97.30;;;;;;5076046;28;20440;-86
2021/10/18 07:27:29;;;;;;;15.70;6.80;;;10.10;97.30;;;;;;5058503;28;20871;-86
2021/10/18 07:29:56;;;;;;;12.40;7.10;;;10.20;97.30;;;;;;5058988;28;20413;-85
2021/10/18 07:32:23;;;;;;;11.70;6.77;;;10.30;97.30;;;;;;5057554;28;20223;-85
2021/10/18 07:34:49;;;;;;;18.43;7.37;;;10.40;97.30;;;;;;5075810;28;20405;-86
2021/10/18 07:37:14;;;;;;;11.40;6.53;;;10.50;97.30;;;;;;5058307;28;20509;-85
2021/10/18 07:39:40;;;;;;;16.70;8.63;;;10.60;97.30;;;;;;5057838;28;20714;-85
2021/10/18 07:42:07;;;;;;;15.03;7.40;;;10.70;97.30;;;;;;5059096;28;20195;-85
2021/10/18 07:44:34;;;;;;;13.70;6.37;;;10.70;97.30;;;;;;5059252;28;20191;-86
2021/10/18 07:47:07;;;;;;;12.00;6.20;;;10.80;97.30;;;;;;5058586;28;20425;-86
2021/10/18 07:49:38;;;;;;;19.33;6.90;;;10.90;97.30;;;;;;5059030;28;20390;-86
2021/10/18 07:52:11;;;;;;;11.70;6.37;;;11.00;97.30;;;;;;5057457;28;20426;-85
2021/10/18 07:57:28;;;;;;;13.37;6.10;;;11.10;97.30;;;;;;5044155;28;20522;-86
2021/10/18 07:59:58;;;;;;;16.20;6.73;;;11.20;97.30;;;;;;5057590;28;20410;-86
2021/10/18 08:02:27;;;;;;;10.03;5.97;;;11.30;97.30;;;;;;5058424;28;20425;-86
2021/10/18 08:04:55;;;;;;;14.53;6.70;;;11.40;97.30;;;;;;5058821;28;20461;-86
2021/10/18 08:07:31;;;;;;;19.40;6.27;;;11.50;97.30;;;;;;5058889;28;20500;-86
2021/10/18 08:09:58;;;;;;;14.90;6.43;;;11.60;97.30;;;;;;5057644;28;20417;-86
2021/10/18 08:12:27;;;;;;;12.10;6.30;;;11.60;97.30;;;;;;5058117;28;20524;-84
2021/10/18 08:14:55;;;;;;;13.70;6.10;;;11.70;97.30;;;;;;5057886;28;20524;-86
2021/10/18 08:18:05;;;;;;;12.60;7.13;;;11.80;97.30;;;;;;5057105;28;20431;-86
2021/10/18 08:20:47;;;;;;;10.77;5.50;;;11.90;97.30;;;;;;5045349;28;20482;-86
2021/10/18 08:23:15;;;;;;;11.60;6.23;;;12.00;97.30;;;;;;5058096;28;20448;-86
2021/10/18 08:25:49;;;;;;;11.87;5.70;;;12.10;97.30;;;;;;5075817;28;20495;-86
2021/10/18 08:28:17;;;;;;;21.50;7.50;;;12.20;97.30;;;;;;5058866;28;20462;-86
2021/10/18 08:30:46;;;;;;;8.77;5.87;;;12.20;97.30;;;;;;5058432;28;20418;-86
2021/10/18 08:33:37;;;;;;;14.40;5.57;;;12.30;97.30;;;;;;5075221;28;20559;-86
2021/10/18 08:36:09;;;;;;;12.57;5.47;;;12.40;97.30;;;;;;5044068;28;20453;-86
2021/10/18 08:41:38;;;;;;;9.07;5.13;;;12.60;97.30;;;;;;5072831;28;20417;-85
2021/10/18 08:44:18;;;;;;;8.77;5.30;;;12.60;97.20;;;;;;5054948;28;20464;-85
2021/10/18 08:46:52;;;;;;;11.27;5.13;;;12.70;97.30;;;;;;5057649;28;20398;-86
2021/10/18 08:49:19;;;;;;;13.23;5.77;;;12.80;97.30;;;;;;5058113;28;20925;-85
2021/10/18 08:51:48;;;;;;;9.07;5.03;;;12.90;96.70;;;;;;5076343;28;20417;-86
2021/10/18 08:54:17;;;;;;;12.50;5.10;;;12.90;96.20;;;;;;5057087;28;20422;-85
2021/10/18 08:57:06;;;;;;;9.80;5.90;;;13.00;96.40;;;;;;5057714;28;20429;-86
2021/10/18 08:59:37;;;;;;;8.80;4.57;;;13.10;96.30;;;;;;5059835;28;20479;-86
2021/10/18 09:02:18;;;;;;;10.67;4.33;;;13.20;96.50;;;;;;5056313;28;20440;-87
2021/10/18 09:04:46;;;;;;;7.50;3.73;;;13.30;95.80;;;;;;5056884;28;20522;-85
2021/10/18 09:07:38;;;;;;;8.77;4.13;;;13.40;95.50;;;;;;5074401;28;20911;-86
2021/10/18 09:10:38;;;;;;;10.50;5.40;;;13.50;95.30;;;;;;5044759;28;20417;-86
2021/10/18 09:13:18;;;;;;;5.53;3.20;;;13.70;94.50;;;;;;5057989;28;20441;-86
2021/10/18 09:15:57;;;;;;;8.67;4.50;;;13.80;94.60;;;;;;5057380;28;20461;-86
2021/10/18 09:18:25;;;;;;;9.40;4.30;;;13.80;93.50;;;;;;5057790;28;20459;-86
2021/10/18 09:20:59;;;;;;;5.97;3.20;;;13.70;92.10;;;;;;5057173;28;20456;-86
2021/10/18 09:24:06;;;;;;;6.70;3.33;;;13.80;92.40;;;;;;5056369;28;20521;-86
2021/10/18 09:27:00;;;;;;;7.93;3.73;;;13.80;92.00;;;;;;5056654;28;20505;-86
2021/10/18 09:29:57;;;;;;;5.63;3.70;;;13.90;91.70;;;;;;5074971;28;20402;-87
2021/10/18 09:32:39;;;;;;;8.97;4.47;;;14.00;92.10;;;;;;5057654;28;21129;-85
2021/10/18 09:35:40;;;;;;;8.13;2.90;;;14.10;92.00;;;;;;5076054;28;20507;-85
2021/10/18 09:38:10;;;;;;;7.37;3.80;;;14.20;91.50;;;;;;5057231;28;20454;-87
2021/10/18 09:40:40;;;;;;;4.67;3.47;;;14.30;90.60;;;;;;5057157;28;20414;-86
2021/10/18 09:43:14;;;;;;;7.43;4.10;;;14.30;89.80;;;;;;5057239;28;20947;-86
2021/10/18 09:46:02;;;;;;;4.03;3.00;;;14.20;89.30;;;;;;5074010;28;20646;-86
2021/10/18 10:55:57;;;;;;;7.23;3.40;;;16.10;85.80;;;;;;5097277;28;20413;-86
2021/10/18 10:58:53;;;;;;;5.47;3.80;;;16.10;85.20;;;;;;5079364;28;20480;-86
2021/10/18 11:01:44;;;;;;;10.43;5.10;;;16.00;84.90;;;;;;5079524;28;20950;-86
2021/10/18 11:04:37;;;;;;;7.37;4.00;;;16.10;85.60;;;;;;5080068;28;20463;-86
2021/10/18 11:07:11;;;;;;;8.13;3.90;;;16.20;85.10;;;;;;5079934;28;20799;-83
2021/10/18 11:09:38;;;;;;;7.53;4.67;;;16.20;86.00;;;;;;5080371;28;20412;-86
2021/10/18 11:12:25;;;;;;;10.63;4.50;;;16.40;86.00;;;;;;5079151;28;20424;-85
2021/10/18 11:14:56;;;;;;;7.70;4.30;;;16.50;86.40;;;;;;5078860;28;20448;-86
2021/10/18 11:17:23;;;;;;;11.53;5.07;;;16.50;85.70;;;;;;5078651;28;20421;-86
2021/10/18 11:19:54;;;;;;;8.40;4.80;;;16.50;86.00;;;;;;5077901;28;20439;-86
2021/10/18 11:22:59;;;;;;;9.10;5.97;;;16.60;84.80;;;;;;5078740;28;20436;-85
2021/10/18 11:25:27;;;;;;;11.53;5.90;;;16.70;84.70;;;;;;5065306;28;20491;-86
2021/10/18 11:27:55;;;;;;;8.20;5.20;;;16.70;85.20;;;;;;5078447;28;20455;-85
2021/10/18 11:30:24;;;;;;;7.70;4.60;;;16.80;84.60;;;;;;5079144;28;20452;-87
2021/10/18 11:32:59;;;;;;;8.53;5.10;;;16.90;84.80;;;;;;5074797;28;21157;-86
2021/10/18 11:35:29;;;;;;;8.60;4.60;;;17.10;84.60;;;;;;5075264;28;20425;-86
2021/10/18 11:37:58;;;;;;;6.87;4.30;;;17.30;83.40;;;;;;5074923;28;20414;-85
2021/10/18 11:40:43;;;;;;;7.80;4.13;;;17.40;82.80;;;;;;5074566;28;20429;-86
2021/10/18 11:43:19;;;;;;;9.50;5.03;;;17.40;83.00;;;;;;5074587;28;20524;-86
2021/10/18 11:45:47;;;;;;;7.17;4.70;;;17.20;82.80;;;;;;5076704;28;20530;-86
2021/10/18 11:48:18;;;;;;;7.50;4.63;;;17.20;83.20;;;;;;5075416;28;20786;-86
2021/10/18 11:50:54;;;;;;;7.27;4.60;;;17.30;83.10;;;;;;5076508;28;20832;-84
2021/10/18 11:53:25;;;;;;;12.40;5.50;;;17.40;83.00;;;;;;5062545;28;20458;-85
2021/10/18 11:55:57;;;;;;;8.10;5.17;;;17.40;83.00;;;;;;5071158;28;20425;-84
2021/10/18 11:58:30;;;;;;;8.10;4.60;;;17.50;82.60;;;;;;5064912;28;20465;-85
2021/10/18 12:01:09;;;;;;;12.43;5.47;;;17.50;83.80;;;;;;5058901;28;20433;-84
2021/10/18 12:03:37;;;;;;;8.37;5.13;;;17.60;83.60;;;;;;5061812;28;20440;-85
2021/10/18 12:06:08;;;;;;;10.23;6.20;;;17.60;82.50;;;;;;5080880;28;20457;-85
2021/10/18 12:08:36;;;;;;;14.60;5.73;;;17.40;82.20;;;;;;5082186;28;20477;-84
2021/10/18 12:11:05;;;;;;;10.23;5.10;;;17.30;82.40;;;;;;5074786;28;20449;-84
2021/10/18 12:13:35;;;;;;;11.70;5.83;;;17.40;82.70;;;;;;5060917;28;20451;-85
2021/10/18 12:16:06;;;;;;;12.13;6.50;;;17.50;83.20;;;;;;5057501;28;20424;-86
2021/10/18 12:18:50;;;;;;;9.17;5.30;;;17.60;83.30;;;;;;5076104;28;20451;-87
2021/10/18 12:21:26;;;;;;;9.90;6.13;;;17.50;82.60;;;;;;5077481;28;20413;-85
2021/10/18 12:23:54;;;;;;;9.80;5.27;;;17.40;81.90;;;;;;5076556;28;20469;-86
2021/10/18 12:26:29;;;;;;;9.83;5.40;;;17.40;83.10;;;;;;5096286;28;20409;-87
2021/10/18 12:29:09;;;;;;;11.63;5.50;;;17.40;82.30;;;;;;5078255;28;20742;-86
2021/10/18 12:31:56;;;;;;;8.90;5.17;;;17.20;83.50;;;;;;5077263;28;20474;-84
2021/10/18 12:34:22;;;;;;;11.30;4.67;;;17.30;83.10;;;;;;5078718;28;20431;-85
2021/10/18 12:36:50;;;;;;;7.53;4.53;;;17.40;82.50;;;;;;5078035;28;20417;-85
2021/10/18 12:39:35;;;;;;;12.23;4.33;;;17.50;81.50;;;;;;5078082;28;20231;-85
2021/10/18 12:42:01;;;;;;;16.53;4.37;;;17.60;82.00;;;;;;5097005;28;20497;-85
2021/10/18 12:44:30;;;;;;;7.70;4.63;;;17.50;81.50;;;;;;5078185;28;20859;-87
2021/10/18 12:46:56;;;;;;;6.37;4.00;;;17.70;82.60;;;;;;5078253;28;20416;-86
2021/10/18 12:49:32;;;;;;;5.70;4.23;;;17.80;82.30;;;;;;5077918;28;20408;-86
2021/10/18 12:52:07;;;;;;;10.70;4.63;;;18.00;82.30;;;;;;5077192;28;20189;-86
2021/10/18 12:54:44;;;;;;;6.10;3.50;;;18.10;81.90;;;;;;5077062;28;20767;-87
2021/10/18 12:57:15;;;;;;;7.93;5.17;;;18.10;81.70;;;;;;5095675;28;20400;-87
2021/10/18 12:59:59;;;;;;;7.70;4.30;;;18.00;82.20;;;;;;5078036;28;20432;-88
2021/10/18 13:02:27;;;;;;;7.73;4.63;;;18.00;81.30;;;;;;5076516;28;20466;-87
2021/10/18 13:05:10;;;;;;;8.37;3.60;;;17.80;81.60;;;;;;5095893;28;20463;-87
2021/10/18 13:07:42;;;;;;;9.30;3.37;;;17.60;81.90;;;;;;5070523;28;20798;-82
2021/10/18 13:10:15;;;;;;;7.70;4.10;;;17.50;82.40;;;;;;5058943;28;20827;-85
2021/10/18 13:12:42;;;;;;;10.80;4.30;;;17.40;81.90;;;;;;5057622;28;20429;-84
2021/10/18 13:15:09;;;;;;;7.50;4.00;;;17.50;82.30;;;;;;5075208;28;20409;-86
2021/10/18 13:17:37;;;;;;;20.33;4.70;;;17.60;82.40;;;;;;5057423;28;20417;-85
2021/10/18 13:20:04;;;;;;;8.47;3.67;;;17.50;81.90;;;;;;5057929;28;20405;-86
2021/10/18 13:22:30;;;;;;;7.70;4.30;;;17.40;82.60;;;;;;5058494;28;20441;-86
2021/10/18 13:24:55;;;;;;;5.23;3.37;;;17.30;82.20;;;;;;5057081;28;20457;-86
2021/10/18 13:27:21;;;;;;;6.20;3.30;;;17.20;83.00;;;;;;5058181;28;20672;-86
2021/10/18 13:29:48;;;;;;;4.00;2.87;;;17.30;83.60;;;;;;5058230;28;20179;-87
2021/10/18 13:32:14;;;;;;;4.40;2.93;;;17.20;83.20;;;;;;5074344;28;20261;-86
2021/10/18 13:34:42;;;;;;;8.27;2.90;;;17.20;82.20;;;;;;5056681;28;20428;-87
2021/10/18 13:37:08;;;;;;;4.90;2.47;;;17.30;83.50;;;;;;5056475;28;20414;-85
2021/10/18 13:39:36;;;;;;;3.83;2.70;;;17.60;82.90;;;;;;5057650;28;20421;-83
2021/10/18 13:42:03;;;;;;;4.83;3.00;;;17.90;82.30;;;;;;5058180;28;20448;-86
2021/10/18 13:44:29;;;;;;;3.13;2.27;;;18.00;79.80;;;;;;5057894;28;20457;-87
2021/10/18 13:47:18;;;;;;;5.50;2.30;;;18.20;80.50;;;;;;5057389;28;20423;-86
2021/10/18 13:50:27;;;;;;;8.27;2.40;;;18.30;79.30;;;;;;5058045;28;20190;-85
2021/10/18 13:53:08;;;;;;;5.60;2.37;;;18.40;79.30;;;;;;5059911;28;20568;-86
2021/10/18 13:55:49;;;;;;;7.00;2.80;;;18.50;78.80;;;;;;5060182;28;20436;-85
2021/10/18 13:58:17;;;;;;;3.37;2.60;;;18.50;78.40;;;;;;5060720;28;20413;-86
2021/10/18 14:00:52;;;;;;;2.10;1.83;;;18.30;77.90;;;;;;5061110;28;20527;-86
2021/10/18 14:03:17;;;;;;;3.40;2.20;;;18.30;78.40;;;;;;5060972;28;20459;-87
2021/10/18 14:05:50;;;;;;;9.10;4.30;;;18.20;79.10;;;;;;5059679;28;20827;-88
2021/10/18 14:08:15;;;;;;;6.43;2.77;;;18.10;79.20;;;;;;5073917;28;20200;-85
2021/10/18 14:10:41;;;;;;;5.40;3.20;;;17.90;79.30;;;;;;5097326;28;20439;-87
2021/10/18 14:13:06;;;;;;;6.20;3.13;;;17.80;79.40;;;;;;5079393;28;20194;-88
2021/10/18 14:15:33;;;;;;;8.07;3.40;;;17.60;79.70;;;;;;5077774;28;20174;-89
2021/10/18 14:18:01;;;;;;;8.30;4.43;;;17.50;80.40;;;;;;5080221;28;20185;-86
2021/10/18 14:20:28;;;;;;;7.80;3.30;;;17.50;81.20;;;;;;5080142;28;20481;-86